createdAt,value
2018-03-30T00:00:05.320Z,73.6
2018-03-30T00:15:05.083Z,72.6
2018-03-30T00:30:05.185Z,72.6
2018-03-30T00:45:04.730Z,73.1
2018-03-30T01:00:05.019Z,73.9
2018-03-30T01:15:05.413Z,74.3
2018-03-30T01:30:04.646Z,73.7
2018-03-30T01:45:05.371Z,73.6
2018-03-30T02:00:04.856Z,73.5
2018-03-30T02:15:05.239Z,73
2018-03-30T02:30:04.328Z,72.4
2018-03-30T02:45:05.377Z,73.8
2018-03-30T03:00:04.933Z,73.5
2018-03-30T03:15:04.687Z,73.5
2018-03-30T03:30:04.815Z,73.6
2018-03-30T03:45:04.614Z,73.2
2018-03-30T04:00:04.695Z,73.1
2018-03-30T04:15:05.357Z,74.3
2018-03-30T04:30:05.415Z,74.1
2018-03-30T04:45:04.964Z,74.6
2018-03-30T05:00:05.058Z,74.8
2018-03-30T05:15:04.579Z,74.6
2018-03-30T05:30:05.051Z,74.1
2018-03-30T05:45:05.111Z,74.2
2018-03-30T06:00:05.598Z,74.6
2018-03-30T06:15:04.834Z,74.3
2018-03-30T06:30:05.247Z,75.5
2018-03-30T06:45:04.674Z,73.7
2018-03-30T07:00:04.794Z,73.3
2018-03-30T07:15:04.866Z,74.7
2018-03-30T07:30:05.290Z,74.4
2018-03-30T07:45:04.715Z,74.5
2018-03-30T08:00:04.896Z,75.3
2018-03-30T08:15:04.665Z,73.3
2018-03-30T08:30:04.499Z,72.9
2018-03-30T08:45:04.909Z,70.3
2018-03-30T09:00:04.973Z,53.4
2018-03-30T09:15:05.022Z,47.7
2018-03-30T09:30:04.725Z,48.6
2018-03-30T09:45:04.558Z,53.8
2018-03-30T10:00:04.999Z,57.4
2018-03-30T10:15:04.538Z,59.6
2018-03-30T10:30:05.220Z,60.4
2018-03-30T10:45:04.654Z,60.7
2018-03-30T11:00:04.594Z,61.4
2018-03-30T11:15:04.995Z,60.4
2018-03-30T11:30:04.769Z,60.9
2018-03-30T11:45:04.669Z,61
2018-03-30T12:15:04.559Z,62.1
2018-03-30T12:30:04.704Z,62.9
2018-03-30T12:45:04.623Z,61.9
2018-03-30T13:00:04.614Z,62.1
2018-03-30T13:15:04.605Z,61.2
2018-03-30T13:30:04.789Z,62.2
2018-03-30T13:45:05.197Z,61.2
2018-03-30T14:00:05.078Z,59.6
2018-03-30T14:15:05.036Z,58.9
2018-03-30T14:30:04.575Z,57.5
2018-03-30T14:45:04.448Z,57.9
2018-03-30T15:00:04.382Z,56.7
2018-03-30T15:15:04.795Z,59
2018-03-30T15:30:04.967Z,60.1
2018-03-30T15:45:04.838Z,59.7
2018-03-30T16:00:04.326Z,61.1
2018-03-30T16:15:04.712Z,62.1
2018-03-30T16:30:04.407Z,63.3
2018-03-30T16:45:04.841Z,63.3
2018-03-30T17:00:04.871Z,64
2018-03-30T17:15:04.745Z,64.1
2018-03-30T17:45:04.844Z,67.5
2018-03-30T18:00:04.762Z,68.5
2018-03-30T18:15:04.619Z,69.1
2018-03-30T18:30:05.180Z,69.6
2018-03-30T18:45:04.646Z,70.7
2018-03-30T19:00:04.633Z,69
2018-03-30T19:15:04.556Z,69.3
2018-03-30T19:30:04.285Z,68
2018-03-30T19:45:04.808Z,68.6
2018-03-30T20:00:05.212Z,69
2018-03-30T20:15:04.715Z,68.7
2018-03-30T20:30:04.910Z,68.9
2018-03-30T20:45:04.373Z,69.6
2018-03-30T21:00:04.267Z,68.9
2018-03-30T21:15:04.672Z,70
2018-03-30T21:30:04.415Z,70
2018-03-30T21:45:04.297Z,70.2
2018-03-30T22:00:04.688Z,71.1
2018-03-30T22:15:04.595Z,70.7
2018-03-30T22:30:04.721Z,70.4
2018-03-30T22:45:04.607Z,70.4
2018-03-30T23:00:05.029Z,70.5
2018-03-30T23:15:04.372Z,70.7
2018-03-30T23:30:05.047Z,71.3
2018-03-30T23:45:04.548Z,71
